Heiskell, Tennessee
Current Conditions -  °F | °C
As of 5:53 PM on Tuesday 25 Nov 2014 (Local Time) from KOQT Reporting Station
Clear Clear  
Wind Chill: 52°   Ceiling: Unl
Heat Index: 52°   Visibility: 10mi
Dew Point: 31°   Wind: 0mph
Humidity: 45%   Direction: NA
Pressure: 30.07"   Gusts: NA
Location:  36.08°N, 84.05°W
Report Text: KOQT 252253Z AUTO 00000KT 10SM CLR 11/M01 A3007 RMK AO2 SLP188 T01111006
Loading
Personal Weather Stations






























Interactive Weather Map New forecast layout! Learn more

10-Day Weather Forecast

Advertisements
Track Severe Weather on mobile